Time;durP1;ratioP1;P1;durP2;ratioP2;P2;SDS_P1;SDS_P2;PMS_P1;PMS_P2;Temp;Humidity;BMP_temperature;BMP_pressure;BME280_temperature;BME280_humidity;BME280_pressure;Samples;Min_cycle;Max_cycle;Signal;HPM_P1;HPM_P2
2021/10/05 00:00:55;;;;;;;8.18;7.37;;;;;;;15.46;77.34;96705.42;1773714;79;20948;-84
2021/10/05 00:03:21;;;;;;;9.43;7.05;;;;;;;15.45;76.79;96702.98;1773535;79;21313;-85
2021/10/05 00:05:47;;;;;;;9.40;7.62;;;;;;;15.43;77.04;96697.95;1796424;79;20970;-85
2021/10/05 00:08:12;;;;;;;8.60;7.00;;;;;;;15.38;77.34;96703.00;1773495;79;20975;-84
2021/10/05 00:10:39;;;;;;;9.50;6.53;;;;;;;15.30;77.68;96701.92;1773295;79;21010;-84
2021/10/05 00:13:04;;;;;;;8.20;6.97;;;;;;;15.26;77.56;96692.34;1773511;79;21046;-84
2021/10/05 00:15:30;;;;;;;8.70;7.62;;;;;;;15.27;77.11;96686.59;1790068;79;20999;-84
2021/10/05 00:17:56;;;;;;;10.08;7.30;;;;;;;15.28;77.21;96689.01;1782089;79;21051;-85
2021/10/05 00:20:23;;;;;;;8.13;7.33;;;;;;;15.30;77.62;96684.40;1796741;79;20938;-85
2021/10/05 00:22:49;;;;;;;9.00;7.53;;;;;;;15.29;77.53;96674.11;1804272;79;20982;-84
2021/10/05 00:25:15;;;;;;;9.10;7.30;;;;;;;15.22;77.32;96679.87;1782835;79;20958;-84
2021/10/05 00:27:40;;;;;;;9.63;7.35;;;;;;;15.16;77.42;96675.45;1783097;79;20963;-85
2021/10/05 00:30:07;;;;;;;9.00;6.80;;;;;;;15.12;77.46;96671.11;1789849;79;20909;-84
2021/10/05 00:32:33;;;;;;;7.95;6.80;;;;;;;15.11;77.29;96670.00;1784762;79;20954;-84
2021/10/05 00:34:58;;;;;;;8.83;7.92;;;;;;;15.12;77.42;96664.56;1794748;79;21053;-84
2021/10/05 00:37:24;;;;;;;9.13;7.92;;;;;;;15.10;77.36;96666.58;1797497;79;21066;-84
2021/10/05 00:39:50;;;;;;;8.55;7.08;;;;;;;15.09;78.06;96662.86;1782141;79;20924;-84
2021/10/05 00:42:16;;;;;;;8.35;6.40;;;;;;;15.07;78.15;96668.30;1808221;79;21313;-84
2021/10/05 00:44:42;;;;;;;9.90;6.90;;;;;;;15.05;77.77;96666.90;1808189;79;21449;-84
2021/10/05 00:47:14;;;;;;;7.58;6.85;;;;;;;15.02;77.54;96668.11;1804061;79;20924;-84
2021/10/05 00:49:42;;;;;;;7.40;6.33;;;;;;;14.99;77.65;96664.59;1799873;79;21011;-85
2021/10/05 00:52:08;;;;;;;9.33;6.87;;;;;;;14.99;77.94;96661.98;1805759;79;21064;-85
2021/10/05 00:54:36;;;;;;;9.10;7.47;;;;;;;14.98;77.81;96671.64;1805913;79;20980;-84
2021/10/05 00:57:04;;;;;;;8.85;6.67;;;;;;;14.94;78.01;96669.11;1805832;79;20996;-85
2021/10/05 00:59:31;;;;;;;6.87;6.17;;;;;;;14.89;77.99;96664.98;1805870;79;20917;-84
2021/10/05 01:01:57;;;;;;;6.58;5.47;;;;;;;14.86;78.22;96662.78;1806088;79;21264;-84
2021/10/05 01:04:23;;;;;;;6.95;6.08;;;;;;;14.85;78.14;96668.22;1805648;79;21004;-84
2021/10/05 01:07:14;;;;;;;7.28;6.58;;;;;;;14.83;78.19;96666.31;1805449;79;21013;-85
2021/10/05 01:09:40;;;;;;;9.00;7.50;;;;;;;14.77;78.18;96662.67;1805816;79;20996;-85
2021/10/05 01:12:06;;;;;;;6.75;5.90;;;;;;;14.70;78.35;96658.75;1779584;79;20968;-85
2021/10/05 01:14:32;;;;;;;6.90;6.15;;;;;;;14.66;78.66;96651.02;1805894;79;20913;-84
2021/10/05 01:16:59;;;;;;;5.67;5.08;;;;;;;14.62;78.87;96648.98;1806017;79;20960;-84
2021/10/05 01:19:25;;;;;;;6.70;6.05;;;;;;;14.62;79.09;96647.16;1805855;79;21064;-84
2021/10/05 01:21:51;;;;;;;7.40;6.17;;;;;;;14.66;79.17;96639.75;1805548;79;21023;-84
2021/10/05 01:24:20;;;;;;;6.65;5.90;;;;;;;14.66;78.89;96641.05;1805940;79;21280;-85
2021/10/05 01:26:45;;;;;;;8.25;6.33;;;;;;;14.71;78.89;96639.44;1805910;79;21328;-85
2021/10/05 01:29:15;;;;;;;8.58;6.12;;;;;;;14.81;78.77;96640.86;1805764;79;20964;-84
2021/10/05 01:31:45;;;;;;;8.00;5.50;;;;;;;14.90;78.39;96643.05;1805999;79;20988;-85
2021/10/05 01:34:11;;;;;;;5.75;4.80;;;;;;;15.06;78.00;96641.03;1804646;79;21028;-84
2021/10/05 01:36:37;;;;;;;7.25;6.53;;;;;;;15.23;77.37;96643.52;1805818;79;21060;-84
2021/10/05 01:39:06;;;;;;;6.97;6.28;;;;;;;15.39;77.12;96636.53;1805855;79;20968;-85
2021/10/05 01:41:31;;;;;;;7.92;6.12;;;;;;;15.50;76.43;96635.91;1805934;79;20969;-85
2021/10/05 01:43:57;;;;;;;9.40;6.28;;;;;;;15.59;76.45;96637.30;1805933;79;21315;-84
2021/10/05 01:46:23;;;;;;;6.92;6.15;;;;;;;15.64;75.94;96633.28;1805749;79;20968;-85
2021/10/05 01:48:49;;;;;;;9.28;6.70;;;;;;;15.65;75.85;96638.82;1804191;79;20968;-85
2021/10/05 01:51:14;;;;;;;6.22;5.42;;;;;;;15.68;75.93;96633.16;1776641;78;21433;-84
2021/10/05 01:53:40;;;;;;;6.78;5.70;;;;;;;15.66;75.74;96624.71;1776846;79;20996;-84
2021/10/05 01:56:06;;;;;;;7.55;6.50;;;;;;;15.65;75.88;96622.59;1792333;79;21057;-84
2021/10/05 01:58:32;;;;;;;6.90;5.42;;;;;;;15.60;75.89;96616.65;1806582;78;20995;-84
2021/10/05 02:00:58;;;;;;;7.87;6.12;;;;;;;15.55;75.95;96615.13;1806470;79;20892;-84
2021/10/05 02:03:24;;;;;;;6.78;6.08;;;;;;;15.52;76.39;96617.37;1799786;78;21057;-84
2021/10/05 02:05:50;;;;;;;6.53;5.42;;;;;;;15.47;76.42;96621.12;1783104;78;21359;-84
2021/10/05 02:08:15;;;;;;;7.92;5.78;;;;;;;15.40;76.36;96622.94;1796306;78;21013;-84
2021/10/05 02:10:43;;;;;;;6.70;5.50;;;;;;;15.37;76.39;96618.12;1776254;78;21098;-84
2021/10/05 02:13:09;;;;;;;9.23;6.47;;;;;;;15.28;76.33;96613.59;1782190;78;20954;-84
2021/10/05 02:15:39;;;;;;;7.15;6.05;;;;;;;15.20;76.88;96608.09;1795007;78;21045;-84
2021/10/05 02:18:03;;;;;;;7.60;6.37;;;;;;;15.13;76.91;96619.09;1775627;78;20982;-84
2021/10/05 02:20:29;;;;;;;7.17;5.47;;;;;;;15.08;77.09;96616.26;1798322;78;20954;-84
2021/10/05 02:22:55;;;;;;;7.28;5.75;;;;;;;15.05;77.17;96603.59;1794321;78;21089;-84
2021/10/05 02:25:21;;;;;;;6.83;6.15;;;;;;;15.02;77.26;96589.61;1776564;78;20946;-85
2021/10/05 02:27:46;;;;;;;7.80;6.00;;;;;;;14.96;77.17;96597.75;1805589;78;20929;-85
2021/10/05 02:30:12;;;;;;;11.83;6.47;;;;;;;14.88;77.52;96592.75;1791981;78;21061;-84
2021/10/05 02:32:39;;;;;;;9.55;5.87;;;;;;;14.81;77.69;96586.73;1768572;78;21751;-84
2021/10/05 02:35:06;;;;;;;8.00;5.22;;;;;;;14.74;77.91;96583.30;1777202;80;20958;-84
2021/10/05 02:37:32;;;;;;;7.35;5.15;;;;;;;14.65;77.85;96583.22;1822498;78;20993;-85
2021/10/05 02:39:59;;;;;;;6.78;5.92;;;;;;;14.62;78.18;96583.59;1822438;78;21040;-85
2021/10/05 02:42:25;;;;;;;7.35;6.40;;;;;;;14.57;78.15;96584.72;1822350;78;21004;-84
2021/10/05 02:44:53;;;;;;;6.72;5.87;;;;;;;14.50;78.49;96574.77;1822647;78;20925;-85
2021/10/05 02:47:19;;;;;;;6.92;6.22;;;;;;;14.43;78.27;96579.95;1822455;78;20994;-85
2021/10/05 02:49:45;;;;;;;7.28;5.17;;;;;;;14.49;78.26;96581.02;1823141;78;21024;-84
2021/10/05 02:52:17;;;;;;;7.33;6.05;;;;;;;14.52;78.14;96583.22;1824196;78;21001;-84
2021/10/05 02:54:46;;;;;;;6.85;5.85;;;;;;;14.56;78.10;96583.11;1824401;78;21004;-84
2021/10/05 02:57:11;;;;;;;7.87;6.15;;;;;;;14.69;77.82;96580.50;1807487;78;21330;-84
2021/10/05 02:59:36;;;;;;;7.87;6.17;;;;;;;14.86;77.18;96576.95;1784052;79;20916;-84
2021/10/05 03:02:03;;;;;;;7.70;6.53;;;;;;;15.04;77.18;96578.43;1791456;79;21018;-85
2021/10/05 03:04:28;;;;;;;8.30;6.40;;;;;;;15.15;76.67;96567.34;1778002;79;21371;-85
2021/10/05 03:06:54;;;;;;;6.33;5.72;;;;;;;15.28;76.44;96574.33;1785723;80;21279;-84
2021/10/05 03:09:20;;;;;;;8.38;5.95;;;;;;;15.38;76.30;96564.74;1787556;79;20955;-85
2021/10/05 03:11:46;;;;;;;6.22;5.45;;;;;;;15.46;75.83;96571.87;1777582;79;21045;-85
2021/10/05 03:14:12;;;;;;;7.42;6.03;;;;;;;15.57;74.78;96573.82;1806910;79;21363;-85
2021/10/05 03:16:38;;;;;;;7.22;6.28;;;;;;;15.71;74.61;96562.81;1786498;79;21052;-85
2021/10/05 03:19:03;;;;;;;7.42;5.83;;;;;;;15.81;74.80;96553.20;1788670;79;21030;-84
2021/10/05 03:21:29;;;;;;;7.62;6.92;;;;;;;15.81;74.28;96547.45;1804899;79;21367;-84
2021/10/05 03:23:55;;;;;;;7.67;6.30;;;;;;;15.78;74.87;96559.67;1780382;78;20978;-85
2021/10/05 03:26:20;;;;;;;9.20;5.70;;;;;;;15.69;75.23;96547.81;1783315;79;20961;-84
2021/10/05 03:28:46;;;;;;;6.83;5.80;;;;;;;15.61;74.36;96547.53;1793586;79;21017;-84
2021/10/05 03:31:12;;;;;;;7.35;5.72;;;;;;;15.63;73.80;96540.81;1799054;79;21035;-84
2021/10/05 03:33:40;;;;;;;6.87;6.17;;;;;;;15.75;73.98;96539.61;1776135;79;21589;-84
2021/10/05 03:36:06;;;;;;;7.03;5.90;;;;;;;15.76;74.20;96545.95;1788670;79;20946;-84
2021/10/05 03:38:32;;;;;;;9.93;6.50;;;;;;;15.76;74.38;96539.91;1807983;79;21402;-84
2021/10/05 03:40:57;;;;;;;7.35;5.83;;;;;;;15.69;74.05;96545.20;1807626;79;21004;-85
2021/10/05 03:43:24;;;;;;;9.38;5.62;;;;;;;15.67;74.38;96549.05;1807773;79;21019;-84
2021/10/05 03:45:50;;;;;;;6.03;5.42;;;;;;;15.60;74.63;96549.86;1787664;79;21384;-84
2021/10/05 03:48:17;;;;;;;9.23;6.33;;;;;;;15.54;74.29;96543.33;1795998;78;20994;-84
2021/10/05 03:50:43;;;;;;;7.95;5.87;;;;;;;15.52;74.86;96542.23;1788069;78;21039;-85
2021/10/05 03:53:09;;;;;;;8.40;6.47;;;;;;;15.40;74.95;96542.58;1775116;79;21062;-84
2021/10/05 03:55:35;;;;;;;6.40;5.55;;;;;;;15.27;75.07;96542.11;1773341;79;21041;-85
2021/10/05 03:58:01;;;;;;;7.35;5.85;;;;;;;15.13;75.26;96548.42;1791579;78;21027;-84
2021/10/05 04:00:26;;;;;;;7.08;5.53;;;;;;;15.06;75.67;96536.35;1782542;78;21010;-84
2021/10/05 04:02:52;;;;;;;6.20;5.60;;;;;;;15.00;75.73;96529.63;1797267;79;21382;-84
2021/10/05 04:05:18;;;;;;;6.65;6.00;;;;;;;14.94;76.12;96529.12;1793124;78;21526;-85
2021/10/05 04:07:44;;;;;;;8.50;6.60;;;;;;;14.84;76.15;96534.50;1801099;79;20987;-85
2021/10/05 04:10:11;;;;;;;6.90;5.65;;;;;;;14.74;76.43;96540.14;1787266;78;21027;-84
2021/10/05 04:12:37;;;;;;;6.65;5.87;;;;;;;14.66;76.73;96539.06;1807584;79;20913;-84
2021/10/05 04:15:04;;;;;;;5.87;5.25;;;;;;;14.62;76.61;96537.33;1773526;79;20962;-84
2021/10/05 04:17:30;;;;;;;8.53;5.53;;;;;;;14.59;76.63;96529.90;1789471;78;20987;-85
2021/10/05 04:19:56;;;;;;;6.85;6.15;;;;;;;14.58;77.02;96538.75;1802295;79;21014;-84
2021/10/05 04:22:22;;;;;;;7.20;5.97;;;;;;;14.55;77.29;96533.13;1796480;79;21027;-84
2021/10/05 04:24:48;;;;;;;7.60;6.85;;;;;;;14.52;77.31;96532.23;1772878;78;20947;-84
2021/10/05 04:27:13;;;;;;;8.08;6.55;;;;;;;14.47;77.54;96530.20;1772885;79;20931;-85
2021/10/05 04:29:40;;;;;;;7.47;5.12;;;;;;;14.44;77.69;96552.03;1789961;79;20986;-84
2021/10/05 04:32:07;;;;;;;6.65;5.83;;;;;;;14.35;77.87;96535.22;1786686;78;20944;-84
2021/10/05 04:34:33;;;;;;;7.75;6.15;;;;;;;14.25;77.77;96541.34;1807582;79;20956;-85
2021/10/05 04:36:59;;;;;;;8.55;5.70;;;;;;;14.24;78.02;96538.43;1783094;78;21031;-84
2021/10/05 04:39:24;;;;;;;7.53;6.20;;;;;;;14.23;78.13;96540.74;1806041;79;20973;-84
2021/10/05 04:41:50;;;;;;;8.60;6.58;;;;;;;14.21;78.33;96541.95;1782521;79;21325;-85
2021/10/05 04:44:16;;;;;;;7.00;6.03;;;;;;;14.12;78.33;96539.52;1805981;78;20931;-85
2021/10/05 04:46:42;;;;;;;7.90;6.30;;;;;;;14.10;78.29;96540.73;1788673;79;20963;-84
2021/10/05 04:49:08;;;;;;;7.55;6.75;;;;;;;14.06;78.32;96534.30;1797771;79;20935;-84
2021/10/05 04:51:34;;;;;;;8.15;6.35;;;;;;;14.01;78.28;96532.30;1800922;78;20986;-84
2021/10/05 04:54:00;;;;;;;7.87;6.28;;;;;;;13.95;78.59;96534.38;1776418;78;21053;-84
2021/10/05 04:56:25;;;;;;;10.75;6.37;;;;;;;13.86;78.89;96539.50;1766733;78;21356;-84
2021/10/05 04:58:52;;;;;;;6.35;5.75;;;;;;;13.77;79.11;96536.25;1776239;78;21353;-85
2021/10/05 05:01:18;;;;;;;7.50;5.65;;;;;;;13.74;79.08;96531.43;1776440;78;21234;-84
2021/10/05 05:03:43;;;;;;;6.78;6.08;;;;;;;13.70;79.20;96523.70;1800565;78;20964;-84
2021/10/05 05:06:09;;;;;;;9.18;6.60;;;;;;;13.68;79.36;96524.90;1797020;79;21314;-84
2021/10/05 05:08:35;;;;;;;8.23;6.70;;;;;;;13.68;79.78;96515.26;1796876;78;20966;-84
2021/10/05 05:11:02;;;;;;;8.40;6.22;;;;;;;13.66;79.75;96524.27;1806284;78;21419;-84
2021/10/05 05:13:28;;;;;;;6.12;5.53;;;;;;;13.66;79.99;96512.02;1791594;78;21082;-84
2021/10/05 05:15:54;;;;;;;6.92;5.72;;;;;;;13.67;80.55;96519.38;1798058;78;21048;-84
2021/10/05 05:18:20;;;;;;;7.70;6.42;;;;;;;13.63;80.53;96520.75;1776310;78;20954;-84
2021/10/05 05:20:45;;;;;;;8.35;6.40;;;;;;;13.60;80.90;96499.77;1792601;78;20911;-84
2021/10/05 05:23:12;;;;;;;7.75;6.95;;;;;;;13.65;80.99;96509.10;1791500;79;21047;-84
2021/10/05 05:25:37;;;;;;;8.48;6.80;;;;;;;13.66;81.03;96515.13;1798118;78;20956;-84
2021/10/05 05:28:03;;;;;;;7.00;6.28;;;;;;;13.65;81.18;96513.02;1776436;79;20971;-84
2021/10/05 05:30:29;;;;;;;11.65;6.12;;;;;;;13.66;81.36;96512.02;1776495;78;20970;-84
2021/10/05 05:32:55;;;;;;;6.28;5.58;;;;;;;13.64;81.10;96520.55;1797821;78;20983;-84
2021/10/05 05:35:21;;;;;;;9.18;7.10;;;;;;;13.64;81.06;96510.11;1776476;78;21014;-84
2021/10/05 05:37:46;;;;;;;7.75;6.92;;;;;;;13.66;81.17;96506.80;1776335;78;21402;-84
2021/10/05 05:40:12;;;;;;;10.53;7.40;;;;;;;13.66;81.39;96511.21;1801335;78;21000;-84
2021/10/05 05:42:38;;;;;;;7.67;6.65;;;;;;;13.67;81.74;96508.94;1785561;78;21320;-85
2021/10/05 05:45:05;;;;;;;9.68;5.85;;;;;;;13.67;81.99;96504.52;1772524;80;20947;-84
2021/10/05 05:47:30;;;;;;;6.33;5.50;;;;;;;13.69;81.98;96509.03;1781598;78;20965;-84
2021/10/05 05:49:56;;;;;;;6.33;5.62;;;;;;;13.73;82.23;96511.55;1788093;78;20979;-84
2021/10/05 05:52:22;;;;;;;9.45;7.42;;;;;;;13.72;82.23;96492.97;1806557;79;21000;-84
2021/10/05 05:54:48;;;;;;;7.60;6.90;;;;;;;13.73;82.50;96498.98;1801589;79;21010;-84
2021/10/05 05:57:13;;;;;;;9.53;7.05;;;;;;;13.71;82.44;96490.55;1772945;78;20928;-84
2021/10/05 05:59:39;;;;;;;8.45;6.80;;;;;;;13.72;82.95;96505.22;1790294;78;20952;-84
2021/10/05 06:02:05;;;;;;;6.67;5.95;;;;;;;13.68;82.74;96492.27;1805312;79;20901;-84
2021/10/05 06:04:30;;;;;;;9.85;6.55;;;;;;;13.69;82.72;96480.81;1785008;79;21312;-84
2021/10/05 06:06:56;;;;;;;5.97;5.37;;;;;;;13.68;82.67;96493.56;1807461;79;21288;-85
2021/10/05 06:09:22;;;;;;;8.08;6.97;;;;;;;13.71;83.05;96484.83;1782251;78;20974;-84
2021/10/05 06:11:50;;;;;;;8.80;6.55;;;;;;;13.75;82.76;96476.89;1807424;79;21016;-84
2021/10/05 06:14:16;;;;;;;8.45;6.70;;;;;;;13.85;83.20;96467.38;1784492;79;21094;-84
2021/10/05 06:16:42;;;;;;;6.22;5.62;;;;;;;13.87;83.36;96478.92;1779953;78;21367;-84
2021/10/05 06:19:08;;;;;;;8.55;6.45;;;;;;;13.91;83.88;96482.73;1790633;79;21014;-84
2021/10/05 06:21:34;;;;;;;6.95;5.65;;;;;;;14.08;82.65;96470.38;1799727;78;20933;-84
2021/10/05 06:23:59;;;;;;;8.88;6.55;;;;;;;14.37;82.81;96482.73;1802112;78;21062;-84
2021/10/05 06:26:25;;;;;;;7.95;7.10;;;;;;;14.46;81.59;96469.77;1772799;79;20983;-84
2021/10/05 06:28:51;;;;;;;7.30;6.60;;;;;;;14.84;80.36;96458.14;1789879;78;20896;-84
2021/10/05 06:31:16;;;;;;;7.65;6.85;;;;;;;15.16;79.64;96456.91;1780472;78;20947;-84
2021/10/05 06:33:42;;;;;;;7.55;6.33;;;;;;;15.37;79.46;96475.43;1772892;78;21002;-85
2021/10/05 06:36:09;;;;;;;6.67;5.90;;;;;;;15.52;78.68;96474.65;1793775;78;20921;-84
2021/10/05 06:38:35;;;;;;;9.65;6.20;;;;;;;15.79;76.38;96475.33;1776930;78;20998;-84
2021/10/05 06:41:02;;;;;;;9.03;7.92;;;;;;;16.04;76.47;96459.61;1773087;79;20941;-84
2021/10/05 06:43:27;;;;;;;9.33;7.65;;;;;;;16.20;75.96;96458.56;1772758;79;20998;-84
2021/10/05 06:45:54;;;;;;;8.83;6.92;;;;;;;16.25;76.60;96459.73;1778351;78;20955;-84
2021/10/05 06:48:19;;;;;;;6.05;5.45;;;;;;;16.17;76.90;96456.89;1790477;78;20998;-84
2021/10/05 06:50:45;;;;;;;6.58;5.97;;;;;;;16.03;76.62;96447.52;1796844;78;20975;-84
2021/10/05 06:53:15;;;;;;;7.78;6.65;;;;;;;15.90;75.72;96445.30;1781586;78;21356;-84
2021/10/05 06:55:39;;;;;;;8.95;6.28;;;;;;;16.08;75.70;96464.20;1807270;79;21016;-85
2021/10/05 06:58:04;;;;;;;9.10;8.03;;;;;;;16.30;75.96;96437.62;1781247;78;20959;-85
2021/10/05 07:00:30;;;;;;;8.58;6.78;;;;;;;16.43;75.69;96447.96;1782858;78;21355;-84
2021/10/05 07:02:56;;;;;;;8.25;7.00;;;;;;;16.46;74.69;96452.80;1804671;79;20970;-85
2021/10/05 07:05:21;;;;;;;8.13;5.83;;;;;;;16.58;73.64;96452.35;1781774;78;20943;-84
2021/10/05 07:07:49;;;;;;;8.40;6.72;;;;;;;16.73;73.87;96459.91;1794878;79;21402;-85
2021/10/05 07:10:17;;;;;;;8.05;6.58;;;;;;;16.87;71.63;96447.45;1772965;79;21015;-84
2021/10/05 07:12:43;;;;;;;8.43;6.33;;;;;;;16.98;71.92;96450.66;1797199;79;20986;-85
2021/10/05 07:15:10;;;;;;;7.08;6.37;;;;;;;17.10;72.18;96444.97;1773101;78;21430;-85
2021/10/05 07:17:36;;;;;;;8.73;7.17;;;;;;;17.17;71.35;96453.55;1794195;78;21009;-85
2021/10/05 07:20:03;;;;;;;7.83;6.72;;;;;;;17.28;71.83;96454.63;1799081;78;21408;-84
2021/10/05 07:22:28;;;;;;;7.42;6.62;;;;;;;17.31;71.33;96441.05;1804503;79;21014;-85
2021/10/05 07:24:54;;;;;;;9.78;6.80;;;;;;;17.26;71.71;96470.62;1804363;78;21046;-85
2021/10/05 07:27:20;;;;;;;8.85;6.85;;;;;;;17.37;70.18;96443.58;1806903;79;20929;-84
2021/10/05 07:29:46;;;;;;;7.22;6.50;;;;;;;17.51;70.51;96440.27;1792720;79;20978;-84
2021/10/05 07:32:12;;;;;;;7.70;6.90;;;;;;;17.55;68.89;96440.10;1773057;79;21310;-84
2021/10/05 07:34:37;;;;;;;7.90;6.58;;;;;;;17.63;69.61;96427.17;1797305;78;20975;-85
2021/10/05 07:37:03;;;;;;;9.93;7.42;;;;;;;17.68;68.60;96433.37;1772987;79;21022;-85
2021/10/05 07:39:29;;;;;;;9.58;6.85;;;;;;;17.77;68.80;96439.13;1773088;78;20991;-85
2021/10/05 07:41:55;;;;;;;9.23;7.53;;;;;;;17.84;68.63;96435.87;1795764;78;21317;-85
2021/10/05 07:44:21;;;;;;;9.23;7.00;;;;;;;17.95;67.40;96433.78;1780882;78;20940;-85
2021/10/05 07:46:47;;;;;;;8.35;6.40;;;;;;;18.03;67.35;96422.12;1793611;79;20974;-85
2021/10/05 07:49:13;;;;;;;9.28;7.25;;;;;;;18.07;67.32;96419.86;1772966;79;21356;-85
2021/10/05 07:51:39;;;;;;;7.20;6.50;;;;;;;18.05;66.99;96418.74;1804038;78;21068;-84
2021/10/05 07:54:05;;;;;;;7.70;6.50;;;;;;;18.05;68.15;96424.00;1791906;78;20997;-85
2021/10/05 07:56:32;;;;;;;8.08;6.47;;;;;;;18.09;66.90;96415.17;1776680;78;21003;-85
2021/10/05 07:58:58;;;;;;;7.45;6.08;;;;;;;18.17;66.85;96436.66;1782928;78;20986;-85
2021/10/05 08:01:24;;;;;;;7.65;6.45;;;;;;;18.29;64.70;96434.84;1807519;78;21008;-85
2021/10/05 08:03:50;;;;;;;8.23;6.65;;;;;;;18.39;66.14;96414.55;1772837;80;20967;-85
2021/10/05 08:06:15;;;;;;;8.20;6.45;;;;;;;18.46;65.33;96414.41;1806402;78;20930;-85
2021/10/05 08:08:41;;;;;;;9.15;7.35;;;;;;;18.54;65.62;96408.27;1754480;80;21400;-84
2021/10/05 08:11:07;;;;;;;9.73;6.62;;;;;;;18.58;66.13;96425.73;1799432;78;20939;-85
2021/10/05 08:13:33;;;;;;;7.15;6.45;;;;;;;18.57;64.18;96414.41;1776509;78;20981;-85
2021/10/05 08:15:58;;;;;;;8.68;6.40;;;;;;;18.65;63.77;96417.73;1796737;78;21411;-85
2021/10/05 08:18:24;;;;;;;7.75;6.45;;;;;;;18.71;64.01;96404.95;1777967;79;20951;-85
2021/10/05 08:20:50;;;;;;;7.40;6.42;;;;;;;18.82;62.82;96412.83;1786498;78;21366;-85
2021/10/05 08:23:16;;;;;;;11.03;7.28;;;;;;;18.93;62.94;96416.48;1788797;78;20993;-85
2021/10/05 08:25:43;;;;;;;8.85;6.65;;;;;;;19.01;62.14;96408.20;1803941;78;20961;-85
2021/10/05 08:28:10;;;;;;;8.33;6.42;;;;;;;19.11;60.24;96401.82;1806103;78;20999;-85
2021/10/05 08:30:36;;;;;;;8.33;6.78;;;;;;;19.20;62.71;96407.53;1772817;80;21402;-85
2021/10/05 08:33:02;;;;;;;7.75;6.80;;;;;;;19.27;61.61;96411.33;1784812;78;20972;-85
2021/10/05 08:35:28;;;;;;;9.85;6.55;;;;;;;19.34;61.33;96411.97;1791834;78;21236;-84
2021/10/05 08:37:55;;;;;;;8.75;6.78;;;;;;;19.40;60.09;96397.35;1800751;78;21338;-85
2021/10/05 08:40:21;;;;;;;8.33;6.62;;;;;;;19.46;59.64;96396.39;1796484;78;21326;-85
2021/10/05 08:42:47;;;;;;;9.38;6.33;;;;;;;19.54;58.70;96393.94;1776612;79;20992;-85
2021/10/05 08:45:13;;;;;;;6.90;6.10;;;;;;;19.61;58.53;96386.66;1776409;79;21077;-85
2021/10/05 08:47:39;;;;;;;8.83;6.58;;;;;;;19.69;58.83;96397.34;1803263;78;21374;-85
2021/10/05 08:50:05;;;;;;;10.15;6.30;;;;;;;19.74;56.42;96394.79;1806185;79;20974;-85
2021/10/05 08:52:33;;;;;;;10.08;6.60;;;;;;;19.79;58.70;96395.66;1824387;78;21003;-85
2021/10/05 08:55:00;;;;;;;7.22;6.53;;;;;;;19.89;58.17;96388.96;1790333;79;21444;-85
2021/10/05 08:57:26;;;;;;;7.72;6.25;;;;;;;19.94;58.45;96385.88;1799980;78;20986;-85
2021/10/05 08:59:51;;;;;;;8.15;6.50;;;;;;;20.00;57.54;96380.14;1824870;78;20924;-85
2021/10/05 09:02:18;;;;;;;9.33;6.70;;;;;;;20.11;57.47;96367.40;1824993;79;20935;-85
2021/10/05 09:04:46;;;;;;;10.32;6.65;;;;;;;20.11;57.47;96367.40;1824731;79;21409;-85
2021/10/05 09:07:20;;;;;;;7.60;6.90;;;;;;;20.22;56.14;96382.86;1824770;78;20915;-85
2021/10/05 09:09:58;;;;;;;7.70;6.58;;;;;;;20.28;54.39;96386.64;1824007;78;20944;-85
2021/10/05 09:12:27;;;;;;;8.73;7.83;;;;;;;20.37;54.67;96369.36;1824706;79;21018;-85
2021/10/05 09:14:53;;;;;;;9.50;7.10;;;;;;;20.42;54.88;96371.81;1824474;79;21014;-85
2021/10/05 09:17:24;;;;;;;9.70;7.03;;;;;;;20.47;55.14;96373.98;1824724;78;21030;-85
2021/10/05 09:19:50;;;;;;;7.85;7.05;;;;;;;20.52;54.54;96373.27;1825002;79;20979;-85
2021/10/05 09:22:18;;;;;;;8.60;7.37;;;;;;;20.56;53.60;96361.98;1824774;79;20935;-85
2021/10/05 09:24:47;;;;;;;8.30;6.97;;;;;;;20.61;53.78;96390.27;1824671;79;20987;-85
2021/10/05 09:27:13;;;;;;;8.65;6.25;;;;;;;20.66;53.68;96383.23;1789159;78;21025;-85
2021/10/05 09:29:39;;;;;;;8.55;7.15;;;;;;;20.72;51.68;96368.24;1824866;79;21321;-85
2021/10/05 09:32:11;;;;;;;9.80;7.30;;;;;;;20.77;52.95;96382.81;1824861;78;20963;-85
2021/10/05 09:34:50;;;;;;;8.68;7.62;;;;;;;20.84;53.16;96408.53;1824654;79;20959;-85
2021/10/05 09:37:29;;;;;;;8.00;6.83;;;;;;;20.90;52.00;96375.05;1824972;79;20964;-85
2021/10/05 09:40:07;;;;;;;10.28;8.05;;;;;;;20.94;51.56;96371.66;1823702;79;20939;-85
2021/10/05 09:42:36;;;;;;;8.78;6.42;;;;;;;20.98;51.96;96362.71;1824713;79;21006;-85
2021/10/05 09:45:09;;;;;;;7.62;6.30;;;;;;;21.03;52.03;96383.13;1824658;79;21402;-85
2021/10/05 09:47:45;;;;;;;7.72;6.90;;;;;;;21.05;50.85;96364.66;1824735;78;20929;-85
2021/10/05 09:50:29;;;;;;;7.95;6.83;;;;;;;21.11;51.18;96354.93;1824787;79;20987;-85
2021/10/05 09:52:58;;;;;;;10.50;6.62;;;;;;;21.14;51.54;96369.75;1824752;79;21374;-85
2021/10/05 09:55:28;;;;;;;7.92;6.70;;;;;;;21.20;49.41;96375.38;1824783;78;21047;-85
2021/10/05 09:57:53;;;;;;;9.15;6.40;;;;;;;21.27;50.36;96347.46;1824790;78;20975;-85
2021/10/05 10:00:22;;;;;;;8.00;7.15;;;;;;;21.30;50.07;96343.52;1824924;78;20923;-85
2021/10/05 10:02:48;;;;;;;7.92;7.00;;;;;;;21.34;49.46;96353.36;1824796;79;20951;-85
2021/10/05 10:05:17;;;;;;;7.37;6.62;;;;;;;21.40;50.75;96344.94;1824845;79;20912;-85
2021/10/05 10:07:45;;;;;;;9.23;6.78;;;;;;;21.42;48.50;96344.96;1824683;79;21334;-85
2021/10/05 10:10:15;;;;;;;8.63;6.60;;;;;;;21.50;47.67;96352.97;1824632;79;21310;-85
2021/10/05 10:12:48;;;;;;;10.38;6.47;;;;;;;21.55;48.28;96370.98;1823971;78;20984;-85
2021/10/05 10:15:14;;;;;;;7.95;6.65;;;;;;;21.60;48.96;96374.19;1824336;78;20943;-85
2021/10/05 10:17:39;;;;;;;7.22;6.17;;;;;;;21.64;47.82;96336.14;1825120;78;21349;-85
2021/10/05 10:20:07;;;;;;;6.53;5.92;;;;;;;21.68;48.77;96339.90;1824969;78;20943;-85
2021/10/05 10:22:45;;;;;;;6.97;6.10;;;;;;;21.72;48.25;96327.23;1824942;78;21338;-84
2021/10/05 10:25:30;;;;;;;7.72;6.53;;;;;;;21.78;48.05;96320.13;1824928;78;21039;-85
2021/10/05 10:28:00;;;;;;;7.95;5.75;;;;;;;21.83;49.02;96324.14;1824604;79;21030;-85
2021/10/05 10:30:28;;;;;;;7.22;6.10;;;;;;;21.85;48.49;96331.30;1822814;79;21060;-85
2021/10/05 10:33:00;;;;;;;6.80;5.85;;;;;;;21.92;49.27;96299.32;1824937;79;20975;-84
2021/10/05 10:35:26;;;;;;;7.35;6.37;;;;;;;21.94;48.92;96280.81;1824871;79;20939;-85
2021/10/05 10:37:53;;;;;;;5.50;5.00;;;;;;;21.98;48.05;96313.67;1824645;78;21006;-85
2021/10/05 10:40:35;;;;;;;7.12;5.75;;;;;;;22.01;46.82;96298.60;1824977;78;20966;-85
2021/10/05 10:43:13;;;;;;;7.55;5.78;;;;;;;22.05;47.90;96305.00;1824908;79;20955;-84
2021/10/05 10:45:49;;;;;;;8.58;5.72;;;;;;;22.13;47.59;96315.64;1824518;79;21017;-84
2021/10/05 10:48:31;;;;;;;7.10;5.67;;;;;;;22.16;47.59;96323.86;1824536;79;20974;-85
2021/10/05 10:51:16;;;;;;;6.25;5.30;;;;;;;22.22;46.69;96301.38;1824953;78;20995;-84
2021/10/05 10:53:44;;;;;;;6.53;5.85;;;;;;;22.24;46.81;96310.66;1824715;79;21358;-85
2021/10/05 10:56:10;;;;;;;6.20;5.60;;;;;;;22.25;46.73;96320.71;1824769;78;21377;-85
2021/10/05 10:58:44;;;;;;;6.55;5.72;;;;;;;22.30;46.92;96319.44;1797301;79;20903;-85
2021/10/05 11:01:14;;;;;;;5.12;4.35;;;;;;;22.35;46.72;96345.92;1824788;79;20932;-85
2021/10/05 11:03:39;;;;;;;7.20;5.37;;;;;;;22.38;45.49;96320.25;1824796;79;20976;-85
2021/10/05 11:06:15;;;;;;;5.78;5.05;;;;;;;22.36;46.26;96336.39;1825099;78;21306;-85
2021/10/05 11:08:54;;;;;;;10.93;5.53;;;;;;;22.46;46.48;96326.39;1824838;79;21007;-84
2021/10/05 11:11:34;;;;;;;7.87;5.37;;;;;;;22.49;47.24;96335.14;1824870;79;20932;-85
2021/10/05 11:14:03;;;;;;;5.87;5.20;;;;;;;22.53;47.00;96349.45;1824620;79;21010;-84
2021/10/05 11:16:34;;;;;;;6.67;5.70;;;;;;;22.57;46.51;96347.08;1824705;79;20950;-84
2021/10/05 11:19:12;;;;;;;6.05;5.12;;;;;;;22.62;46.59;96337.84;1824709;78;21027;-85
2021/10/05 11:21:45;;;;;;;5.53;5.03;;;;;;;22.66;45.69;96329.13;1792008;79;21097;-85
2021/10/05 11:24:14;;;;;;;7.25;5.55;;;;;;;22.71;46.49;96325.69;1792865;79;21056;-85
2021/10/05 11:26:50;;;;;;;6.50;5.80;;;;;;;22.74;46.80;96331.78;1808311;79;21351;-85
2021/10/05 11:29:25;;;;;;;7.95;5.58;;;;;;;22.77;46.26;96333.38;1807413;79;20949;-85
2021/10/05 11:31:58;;;;;;;6.17;5.58;;;;;;;22.80;46.47;96327.31;1807255;79;20965;-84
2021/10/05 11:34:23;;;;;;;6.78;5.00;;;;;;;22.83;46.75;96335.56;1807752;79;21027;-85